Aviation Digital Data Service (ADDS)

Output produced by METARs form (0833 UTC 20 April 2018)
found at http://aviationweather.gov/adds/metars/
 
KILM 200520Z 2006/2106 35010G15KT P6SM SKC 
     FM201500 36013KT P6SM SKC 
     FM201800 03004KT P6SM SKC